sensor_id;sensor_type;location;lat;lon;timestamp;temperature;humidity
63897;DHT22;50063;52.084;5.414;2022-07-29T00:02:14;18.60;94.30
63897;DHT22;50063;52.084;5.414;2022-07-29T00:04:41;18.60;93.90
63897;DHT22;50063;52.084;5.414;2022-07-29T00:07:08;18.60;94.20
63897;DHT22;50063;52.084;5.414;2022-07-29T00:09:35;18.50;93.90
63897;DHT22;50063;52.084;5.414;2022-07-29T00:12:18;18.50;94.10
63897;DHT22;50063;52.084;5.414;2022-07-29T00:14:52;18.40;93.80
63897;DHT22;50063;52.084;5.414;2022-07-29T00:17:19;18.40;94.10
63897;DHT22;50063;52.084;5.414;2022-07-29T00:19:46;18.40;94.10
63897;DHT22;50063;52.084;5.414;2022-07-29T00:22:13;18.30;94.00
63897;DHT22;50063;52.084;5.414;2022-07-29T00:24:39;18.30;94.10
63897;DHT22;50063;52.084;5.414;2022-07-29T00:27:06;18.40;94.50
63897;DHT22;50063;52.084;5.414;2022-07-29T00:29:32;18.30;94.20
63897;DHT22;50063;52.084;5.414;2022-07-29T00:32:01;18.20;94.30
63897;DHT22;50063;52.084;5.414;2022-07-29T00:34:28;18.10;94.50
63897;DHT22;50063;52.084;5.414;2022-07-29T00:37:13;18.20;94.80
63897;DHT22;50063;52.084;5.414;2022-07-29T00:39:39;18.20;94.40
63897;DHT22;50063;52.084;5.414;2022-07-29T00:42:06;18.10;94.40
63897;DHT22;50063;52.084;5.414;2022-07-29T00:44:37;18.10;95.10
63897;DHT22;50063;52.084;5.414;2022-07-29T00:47:03;18.10;95.00
63897;DHT22;50063;52.084;5.414;2022-07-29T00:49:30;18.00;94.60
63897;DHT22;50063;52.084;5.414;2022-07-29T00:51:57;18.10;95.00
63897;DHT22;50063;52.084;5.414;2022-07-29T00:54:23;18.10;95.10
63897;DHT22;50063;52.084;5.414;2022-07-29T00:56:50;18.00;94.60
63897;DHT22;50063;52.084;5.414;2022-07-29T00:59:16;18.00;94.70
63897;DHT22;50063;52.084;5.414;2022-07-29T01:01:43;18.00;95.00
63897;DHT22;50063;52.084;5.414;2022-07-29T01:04:09;18.00;95.00
63897;DHT22;50063;52.084;5.414;2022-07-29T01:06:36;18.00;94.80
63897;DHT22;50063;52.084;5.414;2022-07-29T01:09:03;17.90;95.50
63897;DHT22;50063;52.084;5.414;2022-07-29T01:11:30;17.90;95.30
63897;DHT22;50063;52.084;5.414;2022-07-29T01:13:56;17.90;95.40
63897;DHT22;50063;52.084;5.414;2022-07-29T01:16:33;17.90;95.20
63897;DHT22;50063;52.084;5.414;2022-07-29T01:19:13;17.90;96.50
63897;DHT22;50063;52.084;5.414;2022-07-29T01:21:50;17.80;95.50
63897;DHT22;50063;52.084;5.414;2022-07-29T01:29:44;17.70;95.50
63897;DHT22;50063;52.084;5.414;2022-07-29T01:32:19;17.70;95.50
63897;DHT22;50063;52.084;5.414;2022-07-29T01:35:05;17.70;95.50
63897;DHT22;50063;52.084;5.414;2022-07-29T01:37:45;17.70;95.80
63897;DHT22;50063;52.084;5.414;2022-07-29T01:40:19;17.70;95.60
63897;DHT22;50063;52.084;5.414;2022-07-29T01:42:48;17.70;95.60
63897;DHT22;50063;52.084;5.414;2022-07-29T01:45:32;17.70;95.70
63897;DHT22;50063;52.084;5.414;2022-07-29T01:48:05;17.60;95.60
63897;DHT22;50063;52.084;5.414;2022-07-29T01:50:33;17.60;95.60
63897;DHT22;50063;52.084;5.414;2022-07-29T01:53:01;17.60;95.90
63897;DHT22;50063;52.084;5.414;2022-07-29T01:55:31;17.60;96.10
63897;DHT22;50063;52.084;5.414;2022-07-29T01:57:58;17.60;96.10
63897;DHT22;50063;52.084;5.414;2022-07-29T02:00:26;17.60;96.00
63897;DHT22;50063;52.084;5.414;2022-07-29T02:02:53;17.60;96.10
63897;DHT22;50063;52.084;5.414;2022-07-29T02:05:21;17.60;95.80
63897;DHT22;50063;52.084;5.414;2022-07-29T02:07:48;17.60;95.90
63897;DHT22;50063;52.084;5.414;2022-07-29T02:10:16;17.60;96.10
63897;DHT22;50063;52.084;5.414;2022-07-29T02:12:51;17.60;96.10
63897;DHT22;50063;52.084;5.414;2022-07-29T02:15:18;17.60;95.90
63897;DHT22;50063;52.084;5.414;2022-07-29T02:17:46;17.60;96.20
63897;DHT22;50063;52.084;5.414;2022-07-29T02:20:15;17.60;96.60
63897;DHT22;50063;52.084;5.414;2022-07-29T02:22:42;17.60;96.40
63897;DHT22;50063;52.084;5.414;2022-07-29T02:25:10;17.60;96.20
63897;DHT22;50063;52.084;5.414;2022-07-29T02:27:39;17.60;96.40
63897;DHT22;50063;52.084;5.414;2022-07-29T02:30:07;17.60;96.50
63897;DHT22;50063;52.084;5.414;2022-07-29T02:32:35;17.60;96.50
63897;DHT22;50063;52.084;5.414;2022-07-29T02:35:05;17.60;96.40
63897;DHT22;50063;52.084;5.414;2022-07-29T02:37:33;17.60;96.50
63897;DHT22;50063;52.084;5.414;2022-07-29T02:40:00;17.60;96.30
63897;DHT22;50063;52.084;5.414;2022-07-29T02:42:27;17.50;96.30
63897;DHT22;50063;52.084;5.414;2022-07-29T02:44:55;17.60;96.40
63897;DHT22;50063;52.084;5.414;2022-07-29T02:47:34;17.60;96.70
63897;DHT22;50063;52.084;5.414;2022-07-29T02:52:35;17.50;96.80
63897;DHT22;50063;52.084;5.414;2022-07-29T02:55:22;17.50;96.80
63897;DHT22;50063;52.084;5.414;2022-07-29T02:57:55;17.60;96.80
63897;DHT22;50063;52.084;5.414;2022-07-29T03:00:25;17.50;96.60
63897;DHT22;50063;52.084;5.414;2022-07-29T03:02:53;17.60;96.90
63897;DHT22;50063;52.084;5.414;2022-07-29T03:05:21;17.60;96.70
63897;DHT22;50063;52.084;5.414;2022-07-29T03:07:56;17.60;96.90
63897;DHT22;50063;52.084;5.414;2022-07-29T03:10:25;17.50;96.80
63897;DHT22;50063;52.084;5.414;2022-07-29T03:12:52;17.50;96.90
63897;DHT22;50063;52.084;5.414;2022-07-29T03:15:20;17.50;96.80
63897;DHT22;50063;52.084;5.414;2022-07-29T03:17:50;17.40;96.70
63897;DHT22;50063;52.084;5.414;2022-07-29T03:20:18;17.40;96.90
63897;DHT22;50063;52.084;5.414;2022-07-29T03:22:45;17.40;96.70
63897;DHT22;50063;52.084;5.414;2022-07-29T03:25:15;17.40;96.80
63897;DHT22;50063;52.084;5.414;2022-07-29T03:27:42;17.40;96.90
63897;DHT22;50063;52.084;5.414;2022-07-29T03:30:09;17.40;96.90
63897;DHT22;50063;52.084;5.414;2022-07-29T03:32:36;17.40;97.10
63897;DHT22;50063;52.084;5.414;2022-07-29T03:35:03;17.40;97.20
63897;DHT22;50063;52.084;5.414;2022-07-29T03:37:30;17.40;97.10
63897;DHT22;50063;52.084;5.414;2022-07-29T03:39:57;17.40;97.20
63897;DHT22;50063;52.084;5.414;2022-07-29T03:42:24;17.40;97.10
63897;DHT22;50063;52.084;5.414;2022-07-29T03:44:58;17.40;97.10
63897;DHT22;50063;52.084;5.414;2022-07-29T03:47:27;17.40;97.00
63897;DHT22;50063;52.084;5.414;2022-07-29T03:50:15;17.40;97.30
63897;DHT22;50063;52.084;5.414;2022-07-29T03:52:42;17.30;97.00
63897;DHT22;50063;52.084;5.414;2022-07-29T03:55:11;17.40;97.30
63897;DHT22;50063;52.084;5.414;2022-07-29T03:57:38;17.30;97.30
63897;DHT22;50063;52.084;5.414;2022-07-29T04:00:06;17.40;97.50
63897;DHT22;50063;52.084;5.414;2022-07-29T04:02:33;17.30;97.20
63897;DHT22;50063;52.084;5.414;2022-07-29T04:04:59;17.30;97.40
63897;DHT22;50063;52.084;5.414;2022-07-29T04:07:26;17.40;97.20
63897;DHT22;50063;52.084;5.414;2022-07-29T04:09:53;17.40;97.40
63897;DHT22;50063;52.084;5.414;2022-07-29T04:12:19;17.40;97.80
63897;DHT22;50063;52.084;5.414;2022-07-29T04:14:47;17.30;97.60
63897;DHT22;50063;52.084;5.414;2022-07-29T04:17:13;17.30;97.90
63897;DHT22;50063;52.084;5.414;2022-07-29T04:19:40;17.30;97.90
63897;DHT22;50063;52.084;5.414;2022-07-29T04:22:06;17.20;98.10
63897;DHT22;50063;52.084;5.414;2022-07-29T04:24:34;17.20;98.20
63897;DHT22;50063;52.084;5.414;2022-07-29T04:27:00;17.20;98.20
63897;DHT22;50063;52.084;5.414;2022-07-29T04:29:27;17.20;97.80
63897;DHT22;50063;52.084;5.414;2022-07-29T04:31:53;17.20;98.00
63897;DHT22;50063;52.084;5.414;2022-07-29T04:34:20;17.20;97.90
63897;DHT22;50063;52.084;5.414;2022-07-29T04:36:47;17.30;97.90
63897;DHT22;50063;52.084;5.414;2022-07-29T04:39:13;17.20;98.00
63897;DHT22;50063;52.084;5.414;2022-07-29T04:41:47;17.20;98.10
63897;DHT22;50063;52.084;5.414;2022-07-29T04:44:14;17.20;97.80
63897;DHT22;50063;52.084;5.414;2022-07-29T04:46:42;17.20;97.80
63897;DHT22;50063;52.084;5.414;2022-07-29T04:49:09;17.20;97.90
63897;DHT22;50063;52.084;5.414;2022-07-29T04:51:35;17.20;98.20
63897;DHT22;50063;52.084;5.414;2022-07-29T04:54:02;17.30;98.00
63897;DHT22;50063;52.084;5.414;2022-07-29T04:56:29;17.30;98.40
63897;DHT22;50063;52.084;5.414;2022-07-29T04:58:55;17.30;98.10
63897;DHT22;50063;52.084;5.414;2022-07-29T05:01:22;17.30;98.40
63897;DHT22;50063;52.084;5.414;2022-07-29T05:03:49;17.30;98.00
63897;DHT22;50063;52.084;5.414;2022-07-29T05:06:15;17.30;98.00
63897;DHT22;50063;52.084;5.414;2022-07-29T05:08:42;17.30;98.10
63897;DHT22;50063;52.084;5.414;2022-07-29T05:11:09;17.40;98.20
63897;DHT22;50063;52.084;5.414;2022-07-29T05:13:38;17.40;98.10
63897;DHT22;50063;52.084;5.414;2022-07-29T05:16:12;17.40;98.30
63897;DHT22;50063;52.084;5.414;2022-07-29T05:18:39;17.40;97.90
63897;DHT22;50063;52.084;5.414;2022-07-29T05:21:06;17.40;98.00
63897;DHT22;50063;52.084;5.414;2022-07-29T05:23:32;17.50;98.30
63897;DHT22;50063;52.084;5.414;2022-07-29T05:25:59;17.50;98.40
63897;DHT22;50063;52.084;5.414;2022-07-29T05:28:26;17.50;98.40
63897;DHT22;50063;52.084;5.414;2022-07-29T05:30:52;17.50;98.00
63897;DHT22;50063;52.084;5.414;2022-07-29T05:33:19;17.50;98.60
63897;DHT22;50063;52.084;5.414;2022-07-29T05:36:03;17.60;98.60
63897;DHT22;50063;52.084;5.414;2022-07-29T05:38:31;17.60;98.30
63897;DHT22;50063;52.084;5.414;2022-07-29T05:40:58;17.70;98.60
63897;DHT22;50063;52.084;5.414;2022-07-29T05:43:26;17.70;98.40
63897;DHT22;50063;52.084;5.414;2022-07-29T05:45:52;17.70;98.50
63897;DHT22;50063;52.084;5.414;2022-07-29T05:48:19;17.70;98.40
63897;DHT22;50063;52.084;5.414;2022-07-29T05:50:46;17.70;98.70
63897;DHT22;50063;52.084;5.414;2022-07-29T05:53:12;17.80;98.90
63897;DHT22;50063;52.084;5.414;2022-07-29T05:55:46;17.80;98.70
63897;DHT22;50063;52.084;5.414;2022-07-29T05:58:13;17.80;98.80
63897;DHT22;50063;52.084;5.414;2022-07-29T06:00:39;17.90;98.90
63897;DHT22;50063;52.084;5.414;2022-07-29T06:03:06;17.90;98.80
63897;DHT22;50063;52.084;5.414;2022-07-29T06:05:32;17.90;98.90
63897;DHT22;50063;52.084;5.414;2022-07-29T06:07:59;18.00;98.90
63897;DHT22;50063;52.084;5.414;2022-07-29T06:10:26;17.90;99.20
63897;DHT22;50063;52.084;5.414;2022-07-29T06:12:53;18.00;99.30
63897;DHT22;50063;52.084;5.414;2022-07-29T06:15:19;17.90;99.80
63897;DHT22;50063;52.084;5.414;2022-07-29T06:17:46;17.90;99.30
63897;DHT22;50063;52.084;5.414;2022-07-29T06:20:27;17.90;99.10
63897;DHT22;50063;52.084;5.414;2022-07-29T06:22:56;17.90;98.90
63897;DHT22;50063;52.084;5.414;2022-07-29T06:25:23;17.80;99.10
63897;DHT22;50063;52.084;5.414;2022-07-29T06:27:49;17.80;99.10
63897;DHT22;50063;52.084;5.414;2022-07-29T06:30:16;17.70;98.80
63897;DHT22;50063;52.084;5.414;2022-07-29T06:32:43;17.70;98.70
63897;DHT22;50063;52.084;5.414;2022-07-29T06:35:09;17.70;99.20
63897;DHT22;50063;52.084;5.414;2022-07-29T06:37:56;17.70;99.70
63897;DHT22;50063;52.084;5.414;2022-07-29T06:40:25;17.70;99.70
63897;DHT22;50063;52.084;5.414;2022-07-29T06:43:10;17.70;99.80
63897;DHT22;50063;52.084;5.414;2022-07-29T06:45:37;17.70;99.90
63897;DHT22;50063;52.084;5.414;2022-07-29T06:48:08;17.70;99.90
63897;DHT22;50063;52.084;5.414;2022-07-29T06:50:34;17.70;99.90
63897;DHT22;50063;52.084;5.414;2022-07-29T06:53:01;17.70;99.90
63897;DHT22;50063;52.084;5.414;2022-07-29T06:55:28;17.80;99.90
63897;DHT22;50063;52.084;5.414;2022-07-29T06:57:54;17.70;99.90
63897;DHT22;50063;52.084;5.414;2022-07-29T07:00:21;17.80;99.50
63897;DHT22;50063;52.084;5.414;2022-07-29T07:02:47;17.90;99.80
63897;DHT22;50063;52.084;5.414;2022-07-29T07:05:14;18.00;99.50
63897;DHT22;50063;52.084;5.414;2022-07-29T07:07:41;18.10;99.60
63897;DHT22;50063;52.084;5.414;2022-07-29T07:10:07;18.20;99.80
63897;DHT22;50063;52.084;5.414;2022-07-29T07:12:34;18.20;99.50
63897;DHT22;50063;52.084;5.414;2022-07-29T07:15:01;18.30;99.90
63897;DHT22;50063;52.084;5.414;2022-07-29T07:17:27;18.40;99.70
63897;DHT22;50063;52.084;5.414;2022-07-29T07:19:54;18.50;99.50
63897;DHT22;50063;52.084;5.414;2022-07-29T07:22:21;18.60;99.60
63897;DHT22;50063;52.084;5.414;2022-07-29T07:24:47;18.60;99.50
63897;DHT22;50063;52.084;5.414;2022-07-29T07:27:14;18.70;99.50
63897;DHT22;50063;52.084;5.414;2022-07-29T07:29:40;18.70;99.90
63897;DHT22;50063;52.084;5.414;2022-07-29T07:32:09;18.80;99.70
63897;DHT22;50063;52.084;5.414;2022-07-29T07:34:36;18.80;99.90
63897;DHT22;50063;52.084;5.414;2022-07-29T07:37:04;18.90;99.90
63897;DHT22;50063;52.084;5.414;2022-07-29T07:39:31;19.00;99.60
63897;DHT22;50063;52.084;5.414;2022-07-29T07:41:58;19.00;99.90
63897;DHT22;50063;52.084;5.414;2022-07-29T07:44:24;19.20;99.90
63897;DHT22;50063;52.084;5.414;2022-07-29T07:46:51;19.20;99.90
63897;DHT22;50063;52.084;5.414;2022-07-29T07:49:18;19.40;99.90
63897;DHT22;50063;52.084;5.414;2022-07-29T07:51:45;19.40;99.80
63897;DHT22;50063;52.084;5.414;2022-07-29T07:54:16;19.60;99.90
63897;DHT22;50063;52.084;5.414;2022-07-29T07:56:46;19.70;99.90
63897;DHT22;50063;52.084;5.414;2022-07-29T07:59:18;19.70;99.80
63897;DHT22;50063;52.084;5.414;2022-07-29T08:01:45;20.00;99.60
63897;DHT22;50063;52.084;5.414;2022-07-29T08:04:20;20.10;99.90
63897;DHT22;50063;52.084;5.414;2022-07-29T08:06:53;20.20;99.70
63897;DHT22;50063;52.084;5.414;2022-07-29T08:09:23;20.20;99.70
63897;DHT22;50063;52.084;5.414;2022-07-29T08:11:56;20.30;99.70
63897;DHT22;50063;52.084;5.414;2022-07-29T08:14:23;20.30;99.70
63897;DHT22;50063;52.084;5.414;2022-07-29T08:16:49;20.40;99.80
63897;DHT22;50063;52.084;5.414;2022-07-29T08:19:17;20.50;99.50
63897;DHT22;50063;52.084;5.414;2022-07-29T08:21:44;20.50;99.50
63897;DHT22;50063;52.084;5.414;2022-07-29T08:24:10;20.60;99.40
63897;DHT22;50063;52.084;5.414;2022-07-29T08:26:55;20.70;99.50
63897;DHT22;50063;52.084;5.414;2022-07-29T08:29:22;20.80;99.40
63897;DHT22;50063;52.084;5.414;2022-07-29T08:31:48;20.80;99.40
63897;DHT22;50063;52.084;5.414;2022-07-29T08:34:16;20.90;99.40
63897;DHT22;50063;52.084;5.414;2022-07-29T08:36:42;20.90;99.50
63897;DHT22;50063;52.084;5.414;2022-07-29T08:39:09;20.90;99.50
63897;DHT22;50063;52.084;5.414;2022-07-29T08:41:36;21.00;99.40
63897;DHT22;50063;52.084;5.414;2022-07-29T08:44:03;20.80;99.00
63897;DHT22;50063;52.084;5.414;2022-07-29T08:46:29;20.70;99.20
63897;DHT22;50063;52.084;5.414;2022-07-29T08:48:56;20.70;99.40
63897;DHT22;50063;52.084;5.414;2022-07-29T08:51:23;20.90;99.30
63897;DHT22;50063;52.084;5.414;2022-07-29T08:53:51;20.90;99.20
63897;DHT22;50063;52.084;5.414;2022-07-29T08:56:18;21.00;99.20
63897;DHT22;50063;52.084;5.414;2022-07-29T08:58:46;21.20;99.20
63897;DHT22;50063;52.084;5.414;2022-07-29T09:01:21;21.10;99.00
63897;DHT22;50063;52.084;5.414;2022-07-29T09:03:48;21.10;99.00
63897;DHT22;50063;52.084;5.414;2022-07-29T09:06:17;21.20;99.00
63897;DHT22;50063;52.084;5.414;2022-07-29T09:08:44;21.40;99.00
63897;DHT22;50063;52.084;5.414;2022-07-29T09:11:11;21.50;99.00
63897;DHT22;50063;52.084;5.414;2022-07-29T09:13:38;21.70;99.00
63897;DHT22;50063;52.084;5.414;2022-07-29T09:16:04;21.70;98.90
63897;DHT22;50063;52.084;5.414;2022-07-29T09:21:02;21.90;98.70
63897;DHT22;50063;52.084;5.414;2022-07-29T09:24:04;21.80;98.80
63897;DHT22;50063;52.084;5.414;2022-07-29T09:26:31;21.90;98.60
63897;DHT22;50063;52.084;5.414;2022-07-29T09:28:58;21.90;98.40
63897;DHT22;50063;52.084;5.414;2022-07-29T09:31:32;21.90;98.20
63897;DHT22;50063;52.084;5.414;2022-07-29T09:33:59;22.00;98.40
63897;DHT22;50063;52.084;5.414;2022-07-29T09:36:29;22.10;98.10
63897;DHT22;50063;52.084;5.414;2022-07-29T09:38:59;22.20;97.80
63897;DHT22;50063;52.084;5.414;2022-07-29T09:41:29;22.30;98.10
63897;DHT22;50063;52.084;5.414;2022-07-29T09:43:56;22.30;98.10
63897;DHT22;50063;52.084;5.414;2022-07-29T09:46:23;22.40;98.00
63897;DHT22;50063;52.084;5.414;2022-07-29T09:51:34;22.50;96.80
63897;DHT22;50063;52.084;5.414;2022-07-29T09:54:20;22.50;97.10
63897;DHT22;50063;52.084;5.414;2022-07-29T09:56:48;22.50;97.40
63897;DHT22;50063;52.084;5.414;2022-07-29T09:59:14;22.50;96.90
63897;DHT22;50063;52.084;5.414;2022-07-29T10:01:41;22.60;97.30
63897;DHT22;50063;52.084;5.414;2022-07-29T10:04:08;22.70;97.00
63897;DHT22;50063;52.084;5.414;2022-07-29T10:06:35;22.90;97.50
63897;DHT22;50063;52.084;5.414;2022-07-29T10:09:10;23.00;97.10
63897;DHT22;50063;52.084;5.414;2022-07-29T10:11:37;23.00;96.70
63897;DHT22;50063;52.084;5.414;2022-07-29T10:14:22;23.00;96.70
63897;DHT22;50063;52.084;5.414;2022-07-29T10:16:48;23.10;96.40
63897;DHT22;50063;52.084;5.414;2022-07-29T10:19:15;23.10;96.00
63897;DHT22;50063;52.084;5.414;2022-07-29T10:21:43;23.20;96.60
63897;DHT22;50063;52.084;5.414;2022-07-29T10:24:11;23.20;95.80
63897;DHT22;50063;52.084;5.414;2022-07-29T10:26:40;23.30;96.20
63897;DHT22;50063;52.084;5.414;2022-07-29T10:29:07;23.40;96.20
63897;DHT22;50063;52.084;5.414;2022-07-29T10:31:40;23.40;95.70
63897;DHT22;50063;52.084;5.414;2022-07-29T10:34:21;23.50;95.70
63897;DHT22;50063;52.084;5.414;2022-07-29T10:37:25;23.60;96.10
63897;DHT22;50063;52.084;5.414;2022-07-29T10:42:32;23.70;95.30
63897;DHT22;50063;52.084;5.414;2022-07-29T10:45:06;23.90;95.80
63897;DHT22;50063;52.084;5.414;2022-07-29T10:47:34;24.00;95.70
63897;DHT22;50063;52.084;5.414;2022-07-29T10:50:02;24.10;95.70
63897;DHT22;50063;52.084;5.414;2022-07-29T10:53:12;24.20;95.60
63897;DHT22;50063;52.084;5.414;2022-07-29T10:55:36;24.20;94.50
63897;DHT22;50063;52.084;5.414;2022-07-29T10:58:13;24.20;95.10
63897;DHT22;50063;52.084;5.414;2022-07-29T11:00:40;24.40;95.70
63897;DHT22;50063;52.084;5.414;2022-07-29T11:03:06;24.40;95.20
63897;DHT22;50063;52.084;5.414;2022-07-29T11:05:55;24.40;95.40
63897;DHT22;50063;52.084;5.414;2022-07-29T11:08:25;24.40;95.10
63897;DHT22;50063;52.084;5.414;2022-07-29T11:11:31;24.50;95.40
63897;DHT22;50063;52.084;5.414;2022-07-29T11:16:09;24.60;95.60
63897;DHT22;50063;52.084;5.414;2022-07-29T11:18:56;24.60;94.40
63897;DHT22;50063;52.084;5.414;2022-07-29T11:21:35;24.50;95.40
63897;DHT22;50063;52.084;5.414;2022-07-29T11:24:22;24.60;95.10
63897;DHT22;50063;52.084;5.414;2022-07-29T11:27:37;24.60;95.00
63897;DHT22;50063;52.084;5.414;2022-07-29T11:29:53;24.40;95.20
63897;DHT22;50063;52.084;5.414;2022-07-29T11:32:22;24.30;95.10
63897;DHT22;50063;52.084;5.414;2022-07-29T11:35:09;24.40;95.40
63897;DHT22;50063;52.084;5.414;2022-07-29T11:38:23;24.50;95.40
63897;DHT22;50063;52.084;5.414;2022-07-29T11:46:47;24.60;95.50
63897;DHT22;50063;52.084;5.414;2022-07-29T11:49:21;24.60;95.40
63897;DHT22;50063;52.084;5.414;2022-07-29T11:51:59;24.70;95.50
63897;DHT22;50063;52.084;5.414;2022-07-29T11:54:34;24.60;95.60
63897;DHT22;50063;52.084;5.414;2022-07-29T11:57:21;24.70;95.90
63897;DHT22;50063;52.084;5.414;2022-07-29T11:59:48;24.70;95.50
63897;DHT22;50063;52.084;5.414;2022-07-29T12:02:16;24.70;95.80
63897;DHT22;50063;52.084;5.414;2022-07-29T12:05:02;24.70;95.40
63897;DHT22;50063;52.084;5.414;2022-07-29T12:07:37;24.80;95.90
63897;DHT22;50063;52.084;5.414;2022-07-29T12:10:05;24.90;95.50
63897;DHT22;50063;52.084;5.414;2022-07-29T12:12:32;24.90;95.30
63897;DHT22;50063;52.084;5.414;2022-07-29T12:15:33;24.80;96.20
63897;DHT22;50063;52.084;5.414;2022-07-29T12:18:12;24.90;95.00
63897;DHT22;50063;52.084;5.414;2022-07-29T12:20:39;25.00;95.20
63897;DHT22;50063;52.084;5.414;2022-07-29T12:23:07;25.00;95.30
63897;DHT22;50063;52.084;5.414;2022-07-29T12:25:34;25.20;95.30
63897;DHT22;50063;52.084;5.414;2022-07-29T12:28:04;25.30;95.10
63897;DHT22;50063;52.084;5.414;2022-07-29T12:30:36;25.40;94.80
63897;DHT22;50063;52.084;5.414;2022-07-29T12:33:10;25.50;94.70
63897;DHT22;50063;52.084;5.414;2022-07-29T12:35:37;25.60;95.00
63897;DHT22;50063;52.084;5.414;2022-07-29T12:38:04;25.80;94.70
63897;DHT22;50063;52.084;5.414;2022-07-29T12:40:31;26.10;95.40
63897;DHT22;50063;52.084;5.414;2022-07-29T12:43:14;26.40;95.30
63897;DHT22;50063;52.084;5.414;2022-07-29T12:45:43;26.80;95.10
63897;DHT22;50063;52.084;5.414;2022-07-29T12:48:10;27.30;94.20
63897;DHT22;50063;52.084;5.414;2022-07-29T12:50:51;27.50;94.70
63897;DHT22;50063;52.084;5.414;2022-07-29T12:53:17;27.80;94.70
63897;DHT22;50063;52.084;5.414;2022-07-29T12:55:45;27.90;94.30
63897;DHT22;50063;52.084;5.414;2022-07-29T12:58:31;28.10;94.70
63897;DHT22;50063;52.084;5.414;2022-07-29T13:01:06;28.40;94.80
63897;DHT22;50063;52.084;5.414;2022-07-29T13:11:31;29.60;92.90
63897;DHT22;50063;52.084;5.414;2022-07-29T13:13:59;29.90;94.50
63897;DHT22;50063;52.084;5.414;2022-07-29T13:16:32;30.20;92.70
63897;DHT22;50063;52.084;5.414;2022-07-29T13:19:06;30.10;92.70
63897;DHT22;50063;52.084;5.414;2022-07-29T13:21:33;30.20;92.10
63897;DHT22;50063;52.084;5.414;2022-07-29T13:24:00;30.20;92.00
63897;DHT22;50063;52.084;5.414;2022-07-29T13:26:27;30.70;92.70
63897;DHT22;50063;52.084;5.414;2022-07-29T13:28:54;30.60;90.80
63897;DHT22;50063;52.084;5.414;2022-07-29T13:31:21;30.80;93.10
63897;DHT22;50063;52.084;5.414;2022-07-29T13:33:48;30.90;92.60
63897;DHT22;50063;52.084;5.414;2022-07-29T13:36:15;31.30;92.80
63897;DHT22;50063;52.084;5.414;2022-07-29T13:38:41;31.50;92.10
63897;DHT22;50063;52.084;5.414;2022-07-29T13:41:08;31.80;92.30
63897;DHT22;50063;52.084;5.414;2022-07-29T13:43:36;31.90;90.90
63897;DHT22;50063;52.084;5.414;2022-07-29T13:46:02;31.90;90.90
63897;DHT22;50063;52.084;5.414;2022-07-29T13:48:29;31.90;91.20
63897;DHT22;50063;52.084;5.414;2022-07-29T13:50:56;32.20;92.30
63897;DHT22;50063;52.084;5.414;2022-07-29T13:53:22;31.80;88.10
63897;DHT22;50063;52.084;5.414;2022-07-29T13:55:52;32.00;90.70
63897;DHT22;50063;52.084;5.414;2022-07-29T13:58:19;32.10;91.30
63897;DHT22;50063;52.084;5.414;2022-07-29T14:00:46;32.10;91.10
63897;DHT22;50063;52.084;5.414;2022-07-29T14:03:13;32.10;90.60
63897;DHT22;50063;52.084;5.414;2022-07-29T14:05:39;32.10;91.00
63897;DHT22;50063;52.084;5.414;2022-07-29T14:08:06;32.00;90.80
63897;DHT22;50063;52.084;5.414;2022-07-29T14:10:32;32.00;91.00
63897;DHT22;50063;52.084;5.414;2022-07-29T14:12:59;31.80;90.40
63897;DHT22;50063;52.084;5.414;2022-07-29T14:15:26;31.90;88.50
63897;DHT22;50063;52.084;5.414;2022-07-29T14:17:52;31.60;86.90
63897;DHT22;50063;52.084;5.414;2022-07-29T14:20:19;31.60;89.40
63897;DHT22;50063;52.084;5.414;2022-07-29T14:22:45;31.70;89.30
63897;DHT22;50063;52.084;5.414;2022-07-29T14:25:12;31.50;85.60
63897;DHT22;50063;52.084;5.414;2022-07-29T14:27:40;31.70;89.10
63897;DHT22;50063;52.084;5.414;2022-07-29T14:30:07;31.10;87.50
63897;DHT22;50063;52.084;5.414;2022-07-29T14:32:34;30.90;89.60
63897;DHT22;50063;52.084;5.414;2022-07-29T14:35:01;30.60;87.10
63897;DHT22;50063;52.084;5.414;2022-07-29T14:37:27;30.70;89.10
63897;DHT22;50063;52.084;5.414;2022-07-29T14:40:05;30.30;88.30
63897;DHT22;50063;52.084;5.414;2022-07-29T14:42:32;30.00;88.00
63897;DHT22;50063;52.084;5.414;2022-07-29T14:44:58;30.00;89.20
63897;DHT22;50063;52.084;5.414;2022-07-29T14:47:25;30.00;88.90
63897;DHT22;50063;52.084;5.414;2022-07-29T14:49:51;29.80;88.00
63897;DHT22;50063;52.084;5.414;2022-07-29T14:52:18;29.60;88.30
63897;DHT22;50063;52.084;5.414;2022-07-29T14:54:45;29.90;90.10
63897;DHT22;50063;52.084;5.414;2022-07-29T14:57:11;30.10;89.00
63897;DHT22;50063;52.084;5.414;2022-07-29T14:59:38;30.30;90.40
63897;DHT22;50063;52.084;5.414;2022-07-29T15:02:04;30.60;89.10
63897;DHT22;50063;52.084;5.414;2022-07-29T15:04:31;30.80;90.10
63897;DHT22;50063;52.084;5.414;2022-07-29T15:06:58;30.50;89.70
63897;DHT22;50063;52.084;5.414;2022-07-29T15:09:24;30.20;89.80
63897;DHT22;50063;52.084;5.414;2022-07-29T15:11:51;30.10;87.80
63897;DHT22;50063;52.084;5.414;2022-07-29T15:14:18;29.90;86.90
63897;DHT22;50063;52.084;5.414;2022-07-29T15:16:44;29.30;87.00
63897;DHT22;50063;52.084;5.414;2022-07-29T15:19:13;29.20;87.70
63897;DHT22;50063;52.084;5.414;2022-07-29T15:21:40;28.80;87.50
63897;DHT22;50063;52.084;5.414;2022-07-29T15:24:15;28.80;87.70
63897;DHT22;50063;52.084;5.414;2022-07-29T15:26:42;28.90;89.10
63897;DHT22;50063;52.084;5.414;2022-07-29T15:29:09;30.20;85.40
63897;DHT22;50063;52.084;5.414;2022-07-29T15:31:35;30.40;85.30
63897;DHT22;50063;52.084;5.414;2022-07-29T15:34:02;30.90;85.30
63897;DHT22;50063;52.084;5.414;2022-07-29T15:36:31;32.00;86.00
63897;DHT22;50063;52.084;5.414;2022-07-29T15:39:17;31.60;81.60
63897;DHT22;50063;52.084;5.414;2022-07-29T15:41:44;31.80;83.80
63897;DHT22;50063;52.084;5.414;2022-07-29T15:44:10;32.90;84.90
63897;DHT22;50063;52.084;5.414;2022-07-29T15:46:37;33.60;86.00
63897;DHT22;50063;52.084;5.414;2022-07-29T15:49:23;34.10;79.10
63897;DHT22;50063;52.084;5.414;2022-07-29T15:52:15;33.60;78.20
63897;DHT22;50063;52.084;5.414;2022-07-29T15:54:43;33.80;81.60
63897;DHT22;50063;52.084;5.414;2022-07-29T15:57:09;33.40;77.60
63897;DHT22;50063;52.084;5.414;2022-07-29T15:59:36;34.40;81.10
63897;DHT22;50063;52.084;5.414;2022-07-29T16:02:02;35.20;79.20
63897;DHT22;50063;52.084;5.414;2022-07-29T16:04:29;35.10;78.40
63897;DHT22;50063;52.084;5.414;2022-07-29T16:06:57;35.40;77.70
63897;DHT22;50063;52.084;5.414;2022-07-29T16:09:24;35.90;77.90
63897;DHT22;50063;52.084;5.414;2022-07-29T16:11:54;36.10;78.90
63897;DHT22;50063;52.084;5.414;2022-07-29T16:14:24;36.40;76.70
63897;DHT22;50063;52.084;5.414;2022-07-29T16:16:53;36.60;75.50
63897;DHT22;50063;52.084;5.414;2022-07-29T16:19:20;36.50;75.90